createdAt,value
2019-03-31T00:01:08.054Z,99.90
2019-03-31T00:03:35.318Z,99.90
2019-03-31T00:06:09.899Z,99.90
2019-03-31T00:08:43.305Z,99.90
2019-03-31T00:11:22.640Z,99.90
2019-03-31T00:13:55.920Z,99.90
2019-03-31T00:16:29.340Z,99.90
2019-03-31T00:19:02.678Z,99.90
2019-03-31T00:21:51.877Z,99.90
2019-03-31T00:27:04.386Z,99.90
2019-03-31T00:29:37.789Z,99.90
2019-03-31T00:32:11.174Z,99.90
2019-03-31T00:34:47.693Z,99.90
2019-03-31T00:37:21.159Z,99.90
2019-03-31T00:39:54.568Z,99.90
2019-03-31T00:42:27.922Z,99.90
2019-03-31T00:45:02.478Z,99.90
2019-03-31T00:47:36.009Z,99.90
2019-03-31T00:50:10.795Z,99.90
2019-03-31T00:52:47.223Z,99.90
2019-03-31T00:55:20.548Z,99.90
2019-03-31T00:57:53.888Z,99.90
2019-03-31T01:00:45.518Z,99.90
2019-03-31T01:03:22.129Z,99.90
2019-03-31T01:05:55.798Z,99.90
2019-03-31T01:08:32.358Z,99.90
2019-03-31T01:11:10.711Z,99.90
2019-03-31T01:13:46.442Z,99.90
2019-03-31T01:16:20.560Z,99.90
2019-03-31T01:18:54.908Z,99.90
2019-03-31T01:21:32.728Z,99.90
2019-03-31T01:24:06.288Z,99.90
2019-03-31T01:26:39.703Z,99.90
2019-03-31T01:29:14.514Z,99.90
2019-03-31T01:31:50.636Z,99.90
2019-03-31T01:34:24.119Z,99.90
2019-03-31T01:36:59.001Z,99.90
2019-03-31T01:39:33.458Z,99.90
2019-03-31T01:42:07.483Z,99.90
2019-03-31T01:44:42.014Z,99.90
2019-03-31T01:47:18.481Z,99.90
2019-03-31T01:49:51.950Z,99.90
2019-03-31T01:52:25.349Z,99.90
2019-03-31T01:54:58.703Z,99.90
2019-03-31T01:57:32.902Z,99.90
2019-03-31T02:00:12.478Z,99.90
2019-03-31T02:02:45.882Z,99.90
2019-03-31T02:05:19.237Z,99.90
2019-03-31T02:07:52.752Z,99.90
2019-03-31T02:10:29.508Z,99.90
2019-03-31T02:13:07.889Z,99.90
2019-03-31T02:15:41.249Z,99.90
2019-03-31T02:18:14.663Z,99.90
2019-03-31T02:20:48.020Z,99.90
2019-03-31T02:23:21.407Z,99.90
2019-03-31T02:25:56.678Z,99.90
2019-03-31T02:28:30.159Z,99.90
2019-03-31T02:31:03.638Z,99.90
2019-03-31T02:33:50.347Z,99.90
2019-03-31T02:36:23.841Z,99.90
2019-03-31T02:38:57.204Z,99.90
2019-03-31T02:41:30.695Z,99.90
2019-03-31T02:44:06.776Z,99.90
2019-03-31T02:46:40.201Z,99.90
2019-03-31T02:49:13.572Z,99.90
2019-03-31T02:51:48.080Z,99.90
2019-03-31T02:54:23.230Z,99.90
2019-03-31T02:56:57.240Z,99.90
2019-03-31T02:59:33.569Z,99.90
2019-03-31T03:02:07.172Z,99.90
2019-03-31T03:04:42.329Z,99.90
2019-03-31T03:07:22.809Z,99.90
2019-03-31T03:09:58.422Z,99.90
2019-03-31T03:12:35.677Z,99.90
2019-03-31T03:15:09.350Z,99.90
2019-03-31T03:17:42.729Z,99.90
2019-03-31T03:20:16.109Z,99.90
2019-03-31T03:22:49.499Z,99.90
2019-03-31T03:25:25.567Z,99.90
2019-03-31T03:27:59.057Z,99.90
2019-03-31T03:30:32.456Z,99.90
2019-03-31T03:33:18.454Z,99.90
2019-03-31T03:35:52.174Z,99.90
2019-03-31T03:38:25.560Z,99.90
2019-03-31T03:40:58.908Z,99.90
2019-03-31T03:43:33.470Z,99.90
2019-03-31T03:46:06.830Z,99.90
2019-03-31T03:48:40.211Z,99.90
2019-03-31T03:51:14.776Z,99.90
2019-03-31T03:53:48.259Z,99.90
2019-03-31T03:56:21.629Z,99.90
2019-03-31T03:58:55.880Z,99.90
2019-03-31T04:01:30.060Z,99.90
2019-03-31T04:04:03.561Z,99.90
2019-03-31T04:06:36.909Z,99.90
2019-03-31T04:09:10.325Z,99.90
2019-03-31T04:11:43.705Z,99.90
2019-03-31T04:14:18.593Z,99.90
2019-03-31T04:16:52.777Z,99.90
2019-03-31T04:19:44.881Z,99.90
2019-03-31T04:22:18.232Z,99.90
2019-03-31T04:24:51.628Z,99.90
2019-03-31T04:27:25.321Z,99.90
2019-03-31T04:30:07.213Z,99.90
2019-03-31T04:32:41.803Z,99.90
2019-03-31T04:35:16.172Z,99.90
2019-03-31T04:37:49.568Z,99.90
2019-03-31T04:40:23.231Z,99.90
2019-03-31T04:42:56.632Z,99.90
2019-03-31T04:45:30.989Z,99.90
2019-03-31T04:48:04.501Z,99.90
2019-03-31T04:50:37.888Z,99.90
2019-03-31T04:53:11.367Z,99.90
2019-03-31T04:55:44.671Z,99.90
2019-03-31T04:58:18.070Z,99.90
2019-03-31T05:00:51.535Z,99.90
2019-03-31T05:03:24.929Z,99.90
2019-03-31T05:05:59.679Z,99.90
2019-03-31T05:08:37.920Z,99.90
2019-03-31T05:11:11.219Z,99.90
2019-03-31T05:13:48.886Z,99.90
2019-03-31T05:16:26.220Z,99.90
2019-03-31T05:18:59.619Z,99.90
2019-03-31T05:21:32.983Z,99.90
2019-03-31T05:24:06.382Z,99.90
2019-03-31T05:26:39.740Z,99.90
2019-03-31T05:29:13.129Z,99.90
2019-03-31T05:31:49.250Z,99.90
2019-03-31T05:34:26.184Z,99.90
2019-03-31T05:37:03.441Z,99.90
2019-03-31T05:39:36.961Z,99.90
2019-03-31T05:42:10.334Z,99.90
2019-03-31T05:44:45.268Z,99.90
2019-03-31T05:47:18.646Z,99.90
2019-03-31T05:49:54.779Z,99.90
2019-03-31T05:52:28.136Z,99.90
2019-03-31T05:55:01.600Z,99.90
2019-03-31T05:57:34.980Z,99.90
2019-03-31T06:00:11.345Z,99.90
2019-03-31T06:02:44.851Z,99.90
2019-03-31T06:05:18.252Z,99.90
2019-03-31T06:07:51.615Z,99.90
2019-03-31T06:10:25.033Z,99.90
2019-03-31T06:12:58.488Z,99.90
2019-03-31T06:15:31.956Z,99.90
2019-03-31T06:18:05.368Z,99.90
2019-03-31T06:20:38.794Z,99.90
2019-03-31T06:23:12.181Z,99.90
2019-03-31T06:25:46.238Z,99.90
2019-03-31T06:28:19.578Z,99.90
2019-03-31T06:30:52.966Z,99.90
2019-03-31T06:33:26.370Z,99.90
2019-03-31T06:35:59.773Z,99.90
2019-03-31T06:38:33.068Z,99.90
2019-03-31T06:41:06.480Z,99.90
2019-03-31T06:43:45.530Z,99.90
2019-03-31T06:46:18.986Z,99.90
2019-03-31T06:48:52.320Z,99.90
2019-03-31T06:51:25.734Z,99.90
2019-03-31T06:53:59.408Z,99.90
2019-03-31T06:56:32.841Z,99.90
2019-03-31T06:59:06.242Z,99.90
2019-03-31T07:01:39.692Z,99.90
2019-03-31T07:04:13.236Z,99.90
2019-03-31T07:06:46.857Z,99.90
2019-03-31T07:09:20.270Z,99.90
2019-03-31T07:11:53.762Z,99.90
2019-03-31T07:14:27.226Z,99.90
2019-03-31T07:17:00.627Z,99.90
2019-03-31T07:19:34.105Z,99.90
2019-03-31T07:22:08.520Z,99.90
2019-03-31T07:24:41.889Z,99.90
2019-03-31T07:27:15.429Z,99.90
2019-03-31T07:29:48.830Z,99.90
2019-03-31T07:32:25.364Z,99.90
2019-03-31T07:34:59.722Z,99.90
2019-03-31T07:37:46.584Z,99.90
2019-03-31T07:40:13.206Z,99.90
2019-03-31T07:42:46.576Z,99.90
2019-03-31T07:45:21.678Z,99.90
2019-03-31T07:47:58.379Z,99.90
2019-03-31T07:50:32.767Z,99.90
2019-03-31T07:53:07.972Z,99.90
2019-03-31T07:55:42.895Z,99.90
2019-03-31T07:58:16.255Z,99.90
2019-03-31T08:00:49.602Z,99.90
2019-03-31T08:03:25.788Z,99.90
2019-03-31T08:05:59.928Z,99.90
2019-03-31T08:08:37.434Z,99.90
2019-03-31T08:11:11.600Z,99.90
2019-03-31T08:13:44.941Z,99.90
2019-03-31T08:16:21.352Z,99.90
2019-03-31T08:18:54.622Z,99.90
2019-03-31T08:21:29.460Z,99.90
2019-03-31T08:24:06.342Z,99.90
2019-03-31T08:26:38.676Z,99.90
2019-03-31T08:29:14.037Z,99.90
2019-03-31T08:31:47.759Z,99.90
2019-03-31T08:34:21.264Z,99.90
2019-03-31T08:36:55.534Z,99.90
2019-03-31T08:39:29.773Z,99.90
2019-03-31T08:42:03.071Z,99.90
2019-03-31T08:44:37.581Z,99.90
2019-03-31T08:47:10.988Z,99.90
2019-03-31T08:49:44.426Z,99.90
2019-03-31T08:52:18.638Z,99.90
2019-03-31T08:54:52.281Z,99.90
2019-03-31T08:57:26.210Z,99.90
2019-03-31T08:59:59.629Z,99.90
2019-03-31T09:02:36.375Z,99.90
2019-03-31T09:05:11.205Z,99.90
2019-03-31T09:07:45.034Z,99.90
2019-03-31T09:10:20.731Z,99.60
2019-03-31T09:12:54.088Z,99.70
2019-03-31T09:15:27.530Z,99.00
2019-03-31T09:18:00.901Z,99.60
2019-03-31T09:20:36.210Z,99.40
2019-03-31T09:23:10.309Z,97.80
2019-03-31T09:25:47.459Z,97.80
2019-03-31T09:28:19.842Z,97.60
2019-03-31T09:30:53.274Z,97.10
2019-03-31T09:33:39.449Z,97.10
2019-03-31T09:36:17.753Z,96.10
2019-03-31T09:38:51.751Z,95.50
2019-03-31T09:41:28.278Z,94.20
2019-03-31T09:44:01.741Z,94.30
2019-03-31T09:46:37.114Z,94.80
2019-03-31T09:49:10.931Z,94.50
2019-03-31T09:51:44.748Z,93.40
2019-03-31T09:54:21.502Z,93.10
2019-03-31T09:56:58.149Z,93.60
2019-03-31T09:59:31.872Z,91.30
2019-03-31T10:02:08.228Z,90.60
2019-03-31T10:04:43.221Z,91.50
2019-03-31T10:07:17.793Z,92.30
2019-03-31T10:12:33.630Z,93.40
2019-03-31T10:15:10.039Z,91.70
2019-03-31T10:17:46.614Z,91.40
2019-03-31T10:20:20.484Z,89.20
2019-03-31T10:22:53.939Z,89.10
2019-03-31T10:25:27.286Z,90.80
2019-03-31T10:28:01.323Z,91.30
2019-03-31T10:30:38.904Z,89.20
2019-03-31T10:33:12.442Z,83.80
2019-03-31T10:35:45.852Z,83.00
2019-03-31T10:38:19.350Z,82.40
2019-03-31T10:40:52.840Z,78.50
2019-03-31T10:43:27.865Z,79.10
2019-03-31T10:46:01.693Z,77.40
2019-03-31T10:48:36.691Z,76.90
2019-03-31T10:51:15.532Z,79.10
2019-03-31T10:53:50.507Z,79.20
2019-03-31T10:56:23.889Z,80.90
2019-03-31T10:58:57.311Z,80.90
2019-03-31T11:01:30.720Z,79.70
2019-03-31T11:04:04.952Z,78.20
2019-03-31T11:06:38.406Z,79.90
2019-03-31T11:09:11.848Z,83.90
2019-03-31T11:11:45.322Z,80.80
2019-03-31T11:14:22.243Z,78.80
2019-03-31T11:16:56.379Z,75.80
2019-03-31T11:19:29.808Z,76.70
2019-03-31T11:22:21.396Z,76.40
2019-03-31T11:24:55.001Z,75.40
2019-03-31T11:27:29.423Z,77.50
2019-03-31T11:30:03.008Z,77.90
2019-03-31T11:32:36.498Z,79.20
2019-03-31T11:35:10.704Z,80.80
2019-03-31T11:37:44.202Z,80.60
2019-03-31T11:40:17.737Z,82.50
2019-03-31T11:42:51.150Z,78.70
2019-03-31T11:45:24.601Z,79.20
2019-03-31T11:47:59.165Z,81.40
2019-03-31T11:50:32.790Z,81.40
2019-03-31T11:53:07.408Z,82.40
2019-03-31T11:55:41.568Z,82.10
2019-03-31T11:58:14.999Z,74.00
2019-03-31T12:00:52.879Z,66.80
2019-03-31T12:03:30.642Z,70.40
2019-03-31T12:06:02.219Z,71.20
2019-03-31T12:08:35.541Z,65.30
2019-03-31T12:11:09.005Z,65.20
2019-03-31T12:13:42.424Z,67.00
2019-03-31T12:16:15.869Z,66.20
2019-03-31T12:18:49.263Z,66.30
2019-03-31T12:21:22.793Z,64.70
2019-03-31T12:23:56.193Z,62.50
2019-03-31T12:26:29.655Z,61.10
2019-03-31T12:29:03.162Z,61.10
2019-03-31T12:31:37.151Z,61.50
2019-03-31T12:34:10.540Z,61.90
2019-03-31T12:36:45.180Z,60.10
2019-03-31T12:39:18.630Z,61.60
2019-03-31T12:41:52.039Z,61.20
2019-03-31T12:44:25.429Z,58.90
2019-03-31T12:46:58.850Z,60.60
2019-03-31T12:49:32.273Z,63.00
2019-03-31T12:52:05.789Z,65.20
2019-03-31T12:54:39.187Z,66.00
2019-03-31T12:57:12.619Z,69.20
2019-03-31T12:59:45.999Z,69.70
2019-03-31T13:02:19.450Z,68.20
2019-03-31T13:04:52.832Z,68.00
2019-03-31T13:07:28.450Z,68.30
2019-03-31T13:10:01.828Z,67.80
2019-03-31T13:12:36.260Z,67.30
2019-03-31T13:15:09.908Z,66.60
2019-03-31T13:17:43.418Z,67.60
2019-03-31T13:20:19.532Z,67.00
2019-03-31T13:22:52.969Z,67.60
2019-03-31T13:25:26.370Z,69.80
2019-03-31T13:27:59.930Z,71.40
2019-03-31T13:30:33.288Z,71.10
2019-03-31T13:33:06.869Z,72.20
2019-03-31T13:35:43.886Z,69.90
2019-03-31T13:38:17.288Z,70.60
2019-03-31T13:40:50.731Z,71.80
2019-03-31T13:43:24.112Z,72.50
2019-03-31T13:46:00.071Z,71.70
2019-03-31T13:48:33.529Z,73.30
2019-03-31T13:51:06.919Z,74.60
2019-03-31T13:53:40.440Z,75.50
2019-03-31T13:56:14.281Z,77.90
2019-03-31T13:58:52.346Z,76.00
2019-03-31T14:01:22.860Z,78.00
2019-03-31T14:03:57.795Z,78.40
2019-03-31T14:06:32.804Z,73.50
2019-03-31T14:09:09.593Z,72.60
2019-03-31T14:11:43.092Z,72.20
2019-03-31T14:14:16.592Z,73.60
2019-03-31T14:16:50.024Z,75.60
2019-03-31T14:19:23.609Z,78.00
2019-03-31T14:21:57.001Z,78.30
2019-03-31T14:24:30.601Z,79.00
2019-03-31T14:27:05.404Z,77.50
2019-03-31T14:29:42.258Z,75.90
2019-03-31T14:32:13.832Z,73.50
2019-03-31T14:34:47.369Z,74.30
2019-03-31T14:37:20.781Z,72.20
2019-03-31T14:39:54.195Z,71.70
2019-03-31T14:42:27.611Z,72.60
2019-03-31T14:45:02.246Z,73.40
2019-03-31T14:47:37.705Z,73.40
2019-03-31T14:50:15.149Z,76.70
2019-03-31T14:52:48.561Z,75.30
2019-03-31T14:55:22.000Z,76.90
2019-03-31T14:57:55.363Z,77.00
2019-03-31T15:00:29.419Z,78.50
2019-03-31T15:03:04.975Z,83.60
2019-03-31T15:05:39.213Z,87.30
2019-03-31T15:08:13.461Z,88.40
2019-03-31T15:10:48.113Z,89.30
2019-03-31T15:13:25.921Z,90.00
2019-03-31T15:15:59.713Z,89.60
2019-03-31T15:18:33.166Z,89.00
2019-03-31T15:21:08.339Z,88.80
2019-03-31T15:23:41.880Z,87.90
2019-03-31T15:26:17.013Z,89.30
2019-03-31T15:28:50.471Z,90.80
2019-03-31T15:31:24.240Z,91.10
2019-03-31T15:33:57.680Z,91.00
2019-03-31T15:36:33.863Z,90.90
2019-03-31T15:39:09.730Z,91.00
2019-03-31T15:41:45.220Z,91.40
2019-03-31T15:44:18.713Z,91.50
2019-03-31T15:46:52.270Z,91.80
2019-03-31T15:49:26.911Z,91.70
2019-03-31T15:52:00.783Z,91.70
2019-03-31T15:54:34.387Z,91.40
2019-03-31T15:57:12.042Z,91.30
2019-03-31T15:59:54.656Z,90.60
2019-03-31T16:02:32.012Z,90.40
2019-03-31T16:05:08.828Z,90.60
2019-03-31T16:07:48.380Z,91.10
2019-03-31T16:10:27.011Z,92.60
2019-03-31T16:13:00.431Z,93.10
2019-03-31T16:15:33.914Z,94.10
2019-03-31T16:18:10.008Z,94.30
2019-03-31T16:20:43.367Z,94.90
2019-03-31T16:23:18.010Z,95.10
2019-03-31T16:25:52.909Z,95.60
2019-03-31T16:28:26.300Z,96.00
2019-03-31T16:33:40.518Z,96.30
2019-03-31T16:36:15.961Z,96.10
2019-03-31T16:38:49.357Z,96.30
2019-03-31T16:41:22.754Z,96.70
2019-03-31T16:43:56.222Z,97.10
2019-03-31T16:46:30.794Z,97.20
2019-03-31T16:49:04.175Z,97.40
2019-03-31T16:51:41.603Z,97.70
2019-03-31T16:54:15.001Z,98.30
2019-03-31T16:56:50.020Z,98.50
2019-03-31T16:59:23.627Z,99.00
2019-03-31T17:01:56.983Z,99.80
2019-03-31T17:04:30.492Z,99.90
2019-03-31T17:07:04.182Z,99.90
2019-03-31T17:09:50.995Z,99.90
2019-03-31T17:12:15.638Z,99.90
2019-03-31T17:14:49.351Z,99.90
2019-03-31T17:17:22.714Z,99.90
2019-03-31T17:19:56.234Z,99.90
2019-03-31T17:22:29.753Z,99.90
2019-03-31T17:25:03.330Z,99.90
2019-03-31T17:27:39.136Z,99.90
2019-03-31T17:30:14.387Z,99.90
2019-03-31T17:32:47.836Z,99.90
2019-03-31T17:35:21.873Z,99.90
2019-03-31T17:37:55.576Z,99.90
2019-03-31T17:40:29.438Z,99.90
2019-03-31T17:43:02.917Z,99.90
2019-03-31T17:45:40.292Z,99.90
2019-03-31T17:48:16.053Z,99.90
2019-03-31T17:50:51.791Z,99.90
2019-03-31T17:53:25.473Z,99.90
2019-03-31T17:55:58.991Z,99.90
2019-03-31T17:58:32.551Z,99.90
2019-03-31T18:01:06.107Z,99.90
2019-03-31T18:03:39.650Z,99.90
2019-03-31T18:06:13.413Z,99.90
2019-03-31T18:08:47.415Z,99.90
2019-03-31T18:11:20.832Z,99.90
2019-03-31T18:13:54.360Z,99.90
2019-03-31T18:16:29.400Z,99.90
2019-03-31T18:19:04.771Z,99.90
2019-03-31T18:21:38.531Z,99.90
2019-03-31T18:24:11.928Z,99.90
2019-03-31T18:26:46.634Z,99.90
2019-03-31T18:29:20.063Z,99.90
2019-03-31T18:31:53.482Z,99.90
2019-03-31T18:34:43.863Z,99.90
2019-03-31T18:37:09.521Z,99.90
2019-03-31T18:39:47.046Z,99.90
2019-03-31T18:42:20.481Z,99.90
2019-03-31T18:44:54.714Z,99.90
2019-03-31T18:47:28.914Z,99.90
2019-03-31T18:50:03.000Z,99.90
2019-03-31T18:52:38.027Z,99.90
2019-03-31T18:55:13.231Z,99.90
2019-03-31T18:57:48.229Z,99.90
2019-03-31T19:00:24.446Z,99.90
2019-03-31T19:03:08.029Z,99.90
2019-03-31T19:06:03.661Z,99.90
2019-03-31T19:08:44.683Z,99.90
2019-03-31T19:11:31.241Z,99.90
2019-03-31T19:14:04.441Z,99.90
2019-03-31T19:16:40.105Z,99.90
2019-03-31T19:19:31.489Z,99.90
2019-03-31T19:22:05.063Z,99.90
2019-03-31T19:24:40.692Z,99.90
2019-03-31T19:27:31.968Z,99.90
2019-03-31T19:30:18.414Z,99.90
2019-03-31T19:32:59.207Z,99.90
2019-03-31T19:35:33.522Z,99.90
2019-03-31T19:38:14.299Z,99.90
2019-03-31T19:41:03.332Z,99.90
2019-03-31T19:43:28.811Z,99.90
2019-03-31T19:46:19.447Z,99.90
2019-03-31T19:49:00.536Z,99.90
2019-03-31T19:51:35.456Z,99.90
2019-03-31T19:54:28.750Z,99.90
2019-03-31T19:57:18.586Z,99.90
2019-03-31T20:00:06.604Z,99.90
2019-03-31T20:02:51.611Z,99.90
2019-03-31T20:05:27.136Z,99.90
2019-03-31T20:08:18.214Z,99.90
2019-03-31T20:10:53.163Z,99.90
2019-03-31T20:13:26.207Z,99.90
2019-03-31T20:16:16.771Z,99.90
2019-03-31T20:19:01.422Z,99.90
2019-03-31T20:21:45.111Z,99.90
2019-03-31T20:24:27.040Z,99.90
2019-03-31T20:27:08.648Z,99.90
2019-03-31T20:29:45.009Z,99.90
2019-03-31T20:32:19.880Z,99.90
2019-03-31T20:34:55.379Z,99.90
2019-03-31T20:37:30.297Z,99.90
2019-03-31T20:40:20.938Z,99.90
2019-03-31T20:43:07.423Z,99.90
2019-03-31T20:45:40.762Z,99.90
2019-03-31T20:48:15.153Z,99.90
2019-03-31T20:50:48.520Z,99.90
2019-03-31T20:53:23.445Z,99.90
2019-03-31T20:55:56.788Z,99.90
2019-03-31T20:58:30.157Z,99.90
2019-03-31T21:01:03.493Z,99.90
2019-03-31T21:03:36.898Z,99.90
2019-03-31T21:06:18.113Z,99.90
2019-03-31T21:08:51.508Z,99.90
2019-03-31T21:11:24.878Z,99.90
2019-03-31T21:13:58.296Z,99.90
2019-03-31T21:16:31.663Z,99.90
2019-03-31T21:19:06.258Z,99.90
2019-03-31T21:21:39.628Z,99.90
2019-03-31T21:24:13.118Z,99.90
2019-03-31T21:26:46.497Z,99.90
2019-03-31T21:29:19.885Z,99.90
2019-03-31T21:31:53.245Z,99.90
2019-03-31T21:41:20.058Z,99.90
2019-03-31T21:47:31.709Z,99.90
2019-03-31T21:50:06.876Z,99.90
2019-03-31T21:52:40.269Z,99.90
2019-03-31T21:55:13.626Z,99.90
2019-03-31T21:57:47.018Z,99.90
2019-03-31T22:00:23.959Z,99.90
2019-03-31T22:02:59.030Z,99.90
2019-03-31T22:05:32.483Z,99.90
2019-03-31T22:08:08.614Z,99.90
2019-03-31T22:10:42.018Z,99.90
2019-03-31T22:15:59.782Z,99.90
2019-03-31T22:18:33.229Z,99.90
2019-03-31T22:21:08.151Z,99.90
2019-03-31T22:23:41.462Z,99.90
2019-03-31T22:26:14.739Z,99.90
2019-03-31T22:28:48.206Z,99.90
2019-03-31T22:31:21.586Z,99.90
2019-03-31T22:33:56.067Z,99.90
2019-03-31T22:36:29.438Z,99.90
2019-03-31T22:39:02.914Z,99.90
2019-03-31T22:41:36.484Z,99.90
2019-03-31T22:44:09.871Z,99.90
2019-03-31T22:46:53.651Z,99.90
2019-03-31T22:49:18.242Z,99.90
2019-03-31T22:51:51.589Z,99.90
2019-03-31T22:54:25.005Z,99.90
2019-03-31T22:56:58.372Z,99.90
2019-03-31T23:02:36.879Z,99.90
2019-03-31T23:05:10.273Z,99.90
2019-03-31T23:07:43.639Z,99.90
2019-03-31T23:13:43.818Z,99.90
2019-03-31T23:18:49.395Z,99.90
2019-03-31T23:21:22.743Z,99.90
2019-03-31T23:23:56.118Z,99.90
2019-03-31T23:26:29.469Z,99.90
2019-03-31T23:29:02.872Z,99.90
2019-03-31T23:31:36.228Z,99.90
2019-03-31T23:37:53.319Z,99.90
2019-03-31T23:40:26.722Z,99.90
2019-03-31T23:43:00.082Z,99.90
2019-03-31T23:51:29.708Z,99.90
2019-03-31T23:54:03.083Z,99.90
2019-03-31T23:56:36.467Z,99.90
2019-03-31T23:59:09.848Z,99.90
